Terminal Aerodrome Forecast
Issued by NWS

Home | Current Version | Previous Version | Text Only | Print | Product List | Glossary On
Versions: 1 2 3 4 5 6 7 8 9 10 11 12 13 14 15 16 17 18 19 20 21
103
FTUS46 KLOX 252146 AAC
TAFSBP
TAF AMD
KSBP 252146Z 2522/2618 30014KT P6SM BKN025 BKN035
     FM252230 32015G20KT P6SM SCT050
     FM260300 32010KT P6SM SCT150
     FM261000 VRB03KT P6SM SCT150
     FM261700 32008KT P6SM BKN120=

USA.gov is the U.S. government's official web portal to all federal, state and local government web resources and services.